createdAt,value
2017-01-20T00:00:46.009Z,970.11
2017-01-20T00:01:45.984Z,970.08
2017-01-20T00:02:45.961Z,970.13
2017-01-20T00:03:45.941Z,970.08
2017-01-20T00:04:45.914Z,970.11
2017-01-20T00:05:45.892Z,970.04
2017-01-20T00:06:45.869Z,970.06
2017-01-20T00:07:45.850Z,970.08
2017-01-20T00:08:45.822Z,970.07
2017-01-20T00:09:45.802Z,970.06
2017-01-20T00:10:45.777Z,970.07
2017-01-20T00:11:45.754Z,970.05
2017-01-20T00:12:45.730Z,970.04
2017-01-20T00:13:45.707Z,970.04
2017-01-20T00:14:45.683Z,969.99
2017-01-20T00:15:45.660Z,969.98
2017-01-20T00:16:45.638Z,969.99
2017-01-20T00:17:45.615Z,970.06
2017-01-20T00:18:45.591Z,970
2017-01-20T00:19:45.569Z,970
2017-01-20T00:20:45.546Z,969.99
2017-01-20T00:21:45.524Z,970.01
2017-01-20T00:22:45.500Z,970
2017-01-20T00:23:45.476Z,970
2017-01-20T00:24:45.455Z,970
2017-01-20T00:25:45.432Z,970.01
2017-01-20T00:26:45.408Z,970.04
2017-01-20T00:27:45.387Z,970.01
2017-01-20T00:28:45.363Z,970.02
2017-01-20T00:29:45.338Z,970.06
2017-01-20T00:30:45.317Z,970.01
2017-01-20T00:31:45.294Z,969.99
2017-01-20T00:32:45.270Z,970.01
2017-01-20T00:33:45.246Z,969.99
2017-01-20T00:34:45.226Z,970.02
2017-01-20T00:35:45.201Z,969.98
2017-01-20T00:36:45.179Z,969.93
2017-01-20T00:37:45.156Z,969.94
2017-01-20T00:38:45.132Z,969.95
2017-01-20T00:39:45.109Z,969.96
2017-01-20T00:40:45.086Z,970
2017-01-20T00:41:45.063Z,970
2017-01-20T00:42:45.040Z,969.99
2017-01-20T00:43:45.018Z,969.97
2017-01-20T00:44:44.994Z,970.02
2017-01-20T00:45:44.972Z,969.97
2017-01-20T00:46:44.949Z,969.95
2017-01-20T00:47:44.925Z,969.97
2017-01-20T00:48:44.904Z,969.97
2017-01-20T00:49:44.880Z,969.96
2017-01-20T00:50:44.857Z,969.95
2017-01-20T00:51:44.834Z,969.95
2017-01-20T00:52:44.810Z,969.99
2017-01-20T00:53:44.787Z,969.92
2017-01-20T00:54:44.764Z,969.96
2017-01-20T00:55:44.742Z,969.97
2017-01-20T00:56:44.719Z,969.95
2017-01-20T00:57:44.696Z,969.97
2017-01-20T00:58:44.673Z,970
2017-01-20T00:59:44.649Z,969.99
2017-01-20T01:00:44.627Z,970.03
2017-01-20T01:01:44.603Z,970.02
2017-01-20T01:02:44.579Z,969.99
2017-01-20T01:03:44.557Z,970.01
2017-01-20T01:04:44.534Z,970.04
2017-01-20T01:05:44.511Z,970.04
2017-01-20T01:06:44.487Z,970.06
2017-01-20T01:07:44.465Z,970.04
2017-01-20T01:08:44.443Z,970.08
2017-01-20T01:09:44.419Z,970.01
2017-01-20T01:10:44.397Z,970.05
2017-01-20T01:11:44.373Z,970.06
2017-01-20T01:12:44.351Z,970.08
2017-01-20T01:13:44.327Z,970.05
2017-01-20T01:14:44.303Z,970.09
2017-01-20T01:15:44.280Z,970.08
2017-01-20T01:16:44.258Z,970.06
2017-01-20T01:17:44.233Z,970.1
2017-01-20T01:18:44.210Z,970.09
2017-01-20T01:19:44.188Z,970.08
2017-01-20T01:20:44.166Z,970.07
2017-01-20T01:21:44.141Z,970.05
2017-01-20T01:22:44.119Z,970.11
2017-01-20T01:23:44.095Z,970.11
2017-01-20T01:24:44.072Z,970.06
2017-01-20T01:25:44.048Z,970.1
2017-01-20T01:26:44.027Z,970.11
2017-01-20T01:27:44.004Z,970.06
2017-01-20T01:28:43.981Z,970.12
2017-01-20T01:29:43.957Z,970.07
2017-01-20T01:30:43.935Z,970.12
2017-01-20T01:31:43.912Z,970.11
2017-01-20T01:32:43.889Z,970.04
2017-01-20T01:33:43.866Z,970.04
2017-01-20T01:34:43.843Z,970.07
2017-01-20T01:35:43.820Z,970.07
2017-01-20T01:36:43.797Z,970.08
2017-01-20T01:37:43.774Z,970.13
2017-01-20T01:38:43.751Z,970.06
2017-01-20T01:39:43.727Z,970.09
2017-01-20T01:40:43.704Z,970.05
2017-01-20T01:41:43.682Z,970.07
2017-01-20T01:42:43.659Z,970.04
2017-01-20T01:43:43.636Z,970.05
2017-01-20T01:44:43.612Z,970.04
2017-01-20T01:45:43.589Z,970.06
2017-01-20T01:46:43.666Z,970.05
2017-01-20T01:47:43.543Z,970.06
2017-01-20T01:48:43.522Z,970.02
2017-01-20T01:49:43.498Z,970.03
2017-01-20T01:50:43.474Z,970.01
2017-01-20T01:51:43.452Z,970.05
2017-01-20T01:52:43.428Z,970.08
2017-01-20T01:53:43.404Z,970.1
2017-01-20T01:54:43.383Z,970.1
2017-01-20T01:55:43.360Z,970.07
2017-01-20T01:56:43.337Z,970.05
2017-01-20T01:57:43.313Z,970.09
2017-01-20T01:58:43.292Z,970.05
2017-01-20T01:59:43.268Z,970.02
2017-01-20T02:00:43.245Z,970.02
2017-01-20T02:01:43.220Z,970.04
2017-01-20T02:02:48.394Z,970.03
2017-01-20T02:03:43.175Z,970.01
2017-01-20T02:04:43.151Z,970.02
2017-01-20T02:05:43.129Z,970
2017-01-20T02:06:43.106Z,970.07
2017-01-20T02:07:43.085Z,970.03
2017-01-20T02:08:43.059Z,970.04
2017-01-20T02:09:43.036Z,970.02
2017-01-20T02:10:43.014Z,969.99
2017-01-20T02:11:42.990Z,969.99
2017-01-20T02:12:42.966Z,969.95
2017-01-20T02:13:42.943Z,969.98
2017-01-20T02:14:42.921Z,970.02
2017-01-20T02:15:42.896Z,969.96
2017-01-20T02:16:42.874Z,969.97
2017-01-20T02:17:42.852Z,969.95
2017-01-20T02:18:42.829Z,969.94
2017-01-20T02:19:42.806Z,969.95
2017-01-20T02:20:42.782Z,969.94
2017-01-20T02:21:42.758Z,969.91
2017-01-20T02:22:42.736Z,969.91
2017-01-20T02:23:42.713Z,969.96
2017-01-20T02:24:42.688Z,969.88
2017-01-20T02:25:42.667Z,969.88
2017-01-20T02:26:42.643Z,969.9
2017-01-20T02:27:42.621Z,969.94
2017-01-20T02:28:42.597Z,969.88
2017-01-20T02:29:42.574Z,969.9
2017-01-20T02:30:42.550Z,969.9
2017-01-20T02:31:42.528Z,969.83
2017-01-20T02:32:42.506Z,969.89
2017-01-20T02:33:42.480Z,969.89
2017-01-20T02:34:42.456Z,969.89
2017-01-20T02:35:42.435Z,969.89
2017-01-20T02:36:42.411Z,969.89
2017-01-20T02:37:42.387Z,969.82
2017-01-20T02:38:42.364Z,969.86
2017-01-20T02:39:42.341Z,969.81
2017-01-20T02:40:42.318Z,969.86
2017-01-20T02:41:42.295Z,969.79
2017-01-20T02:42:42.271Z,969.86
2017-01-20T02:43:42.248Z,969.81
2017-01-20T02:44:42.226Z,969.8
2017-01-20T02:45:42.202Z,969.84
2017-01-20T02:46:42.177Z,969.86
2017-01-20T02:47:42.156Z,969.8
2017-01-20T02:48:42.133Z,969.82
2017-01-20T02:49:42.109Z,969.82
2017-01-20T02:50:42.087Z,969.8
2017-01-20T02:51:42.063Z,969.78
2017-01-20T02:52:42.040Z,969.78
2017-01-20T02:53:42.016Z,969.77
2017-01-20T02:54:41.993Z,969.76
2017-01-20T02:55:41.972Z,969.75
2017-01-20T02:56:41.947Z,969.81
2017-01-20T02:57:41.924Z,969.77
2017-01-20T02:58:41.901Z,969.75
2017-01-20T02:59:41.877Z,969.74
2017-01-20T03:00:41.854Z,969.76
2017-01-20T03:01:41.831Z,969.74
2017-01-20T03:02:41.808Z,969.76
2017-01-20T03:03:41.784Z,969.76
2017-01-20T03:04:41.762Z,969.75
2017-01-20T03:05:41.739Z,969.8
2017-01-20T03:06:41.714Z,969.81
2017-01-20T03:07:41.690Z,969.69
2017-01-20T03:08:41.670Z,969.75
2017-01-20T03:09:41.645Z,969.71
2017-01-20T03:10:41.621Z,969.71
2017-01-20T03:11:41.597Z,969.73
2017-01-20T03:12:41.575Z,969.74
2017-01-20T03:13:41.551Z,969.73
2017-01-20T03:14:41.527Z,969.67
2017-01-20T03:15:41.506Z,969.66
2017-01-20T03:16:41.481Z,969.64
2017-01-20T03:17:41.458Z,969.67
2017-01-20T03:18:41.434Z,969.65
2017-01-20T03:19:41.412Z,969.67
2017-01-20T03:20:41.388Z,969.66
2017-01-20T03:21:41.366Z,969.64
2017-01-20T03:22:41.341Z,969.63
2017-01-20T03:23:41.319Z,969.64
2017-01-20T03:24:41.295Z,969.62
2017-01-20T03:25:41.272Z,969.63
2017-01-20T03:26:41.249Z,969.59
2017-01-20T03:27:41.226Z,969.58
2017-01-20T03:28:41.203Z,969.57
2017-01-20T03:29:41.180Z,969.58
2017-01-20T03:30:41.157Z,969.61
2017-01-20T03:31:41.133Z,969.59
2017-01-20T03:32:41.110Z,969.59
2017-01-20T03:33:41.087Z,969.58
2017-01-20T03:34:41.064Z,969.57
2017-01-20T03:35:41.041Z,969.58
2017-01-20T03:36:41.017Z,969.54
2017-01-20T03:37:40.994Z,969.59
2017-01-20T03:38:40.972Z,969.57
2017-01-20T03:39:40.948Z,969.58
2017-01-20T03:40:40.924Z,969.56
2017-01-20T03:41:40.902Z,969.57
2017-01-20T03:42:40.879Z,969.55
2017-01-20T03:43:40.855Z,969.58
2017-01-20T03:44:40.831Z,969.54
2017-01-20T03:45:40.809Z,969.56
2017-01-20T03:46:40.786Z,969.53
2017-01-20T03:47:40.763Z,969.55
2017-01-20T03:48:40.739Z,969.55
2017-01-20T03:49:40.716Z,969.56
2017-01-20T03:50:40.692Z,969.53
2017-01-20T03:51:40.669Z,969.54
2017-01-20T03:52:40.645Z,969.56
2017-01-20T03:53:40.623Z,969.57
2017-01-20T03:54:40.599Z,969.55
2017-01-20T03:55:40.577Z,969.56
2017-01-20T03:56:40.554Z,969.55
2017-01-20T03:57:40.529Z,969.54
2017-01-20T03:58:40.508Z,969.54
2017-01-20T03:59:40.484Z,969.49
2017-01-20T04:00:40.462Z,969.51
2017-01-20T04:01:40.437Z,969.51
2017-01-20T04:02:40.414Z,969.46
2017-01-20T04:03:40.391Z,969.47
2017-01-20T04:04:40.368Z,969.47
2017-01-20T04:05:40.360Z,969.41
2017-01-20T04:06:40.320Z,969.49
2017-01-20T04:07:40.298Z,969.4
2017-01-20T04:08:40.276Z,969.42
2017-01-20T04:09:40.252Z,969.39
2017-01-20T04:10:40.229Z,969.43
2017-01-20T04:11:40.205Z,969.42
2017-01-20T04:12:40.181Z,969.43
2017-01-20T04:13:40.158Z,969.45
2017-01-20T04:14:40.136Z,969.41
2017-01-20T04:15:40.113Z,969.35
2017-01-20T04:16:40.089Z,969.37
2017-01-20T04:17:40.068Z,969.38
2017-01-20T04:18:40.044Z,969.34
2017-01-20T04:19:40.023Z,969.34
2017-01-20T04:20:39.997Z,969.38
2017-01-20T04:21:39.975Z,969.35
2017-01-20T04:22:39.952Z,969.3
2017-01-20T04:23:39.928Z,969.35
2017-01-20T04:24:39.903Z,969.3
2017-01-20T04:25:39.893Z,969.33
2017-01-20T04:26:39.860Z,969.32
2017-01-20T04:27:39.834Z,969.3
2017-01-20T04:28:39.813Z,969.27
2017-01-20T04:29:39.789Z,969.26
2017-01-20T04:30:39.767Z,969.28
2017-01-20T04:31:39.743Z,969.26
2017-01-20T04:32:39.721Z,969.24
2017-01-20T04:33:39.696Z,969.29
2017-01-20T04:34:39.673Z,969.26
2017-01-20T04:35:39.652Z,969.26
2017-01-20T04:36:39.627Z,969.29
2017-01-20T04:37:39.604Z,969.31
2017-01-20T04:38:39.581Z,969.29
2017-01-20T04:39:39.558Z,969.31
2017-01-20T04:40:39.536Z,969.24
2017-01-20T04:41:39.514Z,969.27
2017-01-20T04:42:39.490Z,969.26
2017-01-20T04:43:39.467Z,969.27
2017-01-20T04:44:39.443Z,969.31
2017-01-20T04:45:39.421Z,969.27
2017-01-20T04:46:39.399Z,969.33
2017-01-20T04:47:39.376Z,969.32
2017-01-20T04:48:39.353Z,969.28
2017-01-20T04:49:39.330Z,969.3
2017-01-20T04:50:39.307Z,969.28
2017-01-20T04:51:39.285Z,969.3
2017-01-20T04:52:39.263Z,969.27
2017-01-20T04:53:39.239Z,969.25
2017-01-20T04:54:39.216Z,969.26
2017-01-20T04:55:39.194Z,969.27
2017-01-20T04:56:39.170Z,969.26
2017-01-20T04:57:39.146Z,969.27
2017-01-20T04:58:39.124Z,969.26
2017-01-20T04:59:39.109Z,969.32
2017-01-20T05:00:39.078Z,969.27
2017-01-20T05:01:39.055Z,969.3
2017-01-20T05:02:39.032Z,969.28
2017-01-20T05:03:39.009Z,969.24
2017-01-20T05:04:38.987Z,969.26
2017-01-20T05:05:38.965Z,969.3
2017-01-20T05:06:38.941Z,969.3
2017-01-20T05:07:38.918Z,969.29
2017-01-20T05:08:38.896Z,969.32
2017-01-20T05:09:38.872Z,969.28
2017-01-20T05:10:38.850Z,969.27
2017-01-20T05:11:38.827Z,969.26
2017-01-20T05:12:38.805Z,969.3
2017-01-20T05:13:38.781Z,969.2
2017-01-20T05:14:38.757Z,969.25
2017-01-20T05:15:38.736Z,969.27
2017-01-20T05:16:38.714Z,969.24
2017-01-20T05:17:38.689Z,969.25
2017-01-20T05:18:38.666Z,969.17
2017-01-20T05:19:38.644Z,969.23
2017-01-20T05:20:38.622Z,969.19
2017-01-20T05:21:38.599Z,969.23
2017-01-20T05:22:38.583Z,969.23
2017-01-20T05:23:38.552Z,969.25
2017-01-20T05:24:38.530Z,969.24
2017-01-20T05:25:38.506Z,969.22
2017-01-20T05:26:38.484Z,969.23
2017-01-20T05:27:38.461Z,969.24
2017-01-20T05:28:38.439Z,969.23
2017-01-20T05:29:38.415Z,969.16
2017-01-20T05:30:38.392Z,969.2
2017-01-20T05:31:38.369Z,969.23
2017-01-20T05:32:38.347Z,969.22
2017-01-20T05:33:38.322Z,969.24
2017-01-20T05:34:38.301Z,969.2
2017-01-20T05:35:38.277Z,969.25
2017-01-20T05:36:38.255Z,969.25
2017-01-20T05:37:38.232Z,969.31
2017-01-20T05:38:38.209Z,969.32
2017-01-20T05:39:38.187Z,969.31
2017-01-20T05:40:38.163Z,969.32
2017-01-20T05:41:38.139Z,969.38
2017-01-20T05:42:38.116Z,969.38
2017-01-20T05:43:38.095Z,969.35
2017-01-20T05:44:38.071Z,969.35
2017-01-20T05:45:38.048Z,969.37
2017-01-20T05:46:38.025Z,969.38
2017-01-20T05:47:38.002Z,969.41
2017-01-20T05:48:37.979Z,969.4
2017-01-20T05:49:37.996Z,969.41
2017-01-20T05:50:37.972Z,969.4
2017-01-20T05:51:37.949Z,969.41
2017-01-20T05:52:37.927Z,969.4
2017-01-20T05:53:37.903Z,969.41
2017-01-20T05:54:37.882Z,969.43
2017-01-20T05:55:37.856Z,969.45
2017-01-20T05:56:37.835Z,969.43
2017-01-20T05:57:37.813Z,969.47
2017-01-20T05:58:37.790Z,969.49
2017-01-20T05:59:37.769Z,969.46
2017-01-20T06:00:37.744Z,969.38
2017-01-20T06:01:37.721Z,969.44
2017-01-20T06:02:37.697Z,969.47
2017-01-20T06:03:37.674Z,969.45
2017-01-20T06:04:37.652Z,969.53
2017-01-20T06:05:37.629Z,969.54
2017-01-20T06:06:37.605Z,969.54
2017-01-20T06:07:37.583Z,969.52
2017-01-20T06:08:37.560Z,969.5
2017-01-20T06:09:37.537Z,969.49
2017-01-20T06:10:37.513Z,969.51
2017-01-20T06:11:37.492Z,969.47
2017-01-20T06:12:37.470Z,969.53
2017-01-20T06:13:37.446Z,969.5
2017-01-20T06:14:37.423Z,969.52
2017-01-20T06:15:37.400Z,969.47
2017-01-20T06:16:37.377Z,969.51
2017-01-20T06:17:37.354Z,969.49
2017-01-20T06:18:37.331Z,969.49
2017-01-20T06:19:37.309Z,969.51
2017-01-20T06:20:37.285Z,969.49
2017-01-20T06:21:37.263Z,969.49
2017-01-20T06:22:37.240Z,969.51
2017-01-20T06:23:37.218Z,969.44
2017-01-20T06:24:37.194Z,969.5
2017-01-20T06:25:37.171Z,969.5
2017-01-20T06:26:37.149Z,969.53
2017-01-20T06:27:37.127Z,969.52
2017-01-20T06:28:37.103Z,969.48
2017-01-20T06:29:37.081Z,969.55
2017-01-20T06:30:37.058Z,969.56
2017-01-20T06:31:37.034Z,969.59
2017-01-20T06:32:37.013Z,969.56
2017-01-20T06:33:36.990Z,969.54
2017-01-20T06:34:36.968Z,969.57
2017-01-20T06:35:36.946Z,969.52
2017-01-20T06:36:36.922Z,969.55
2017-01-20T06:37:36.899Z,969.56
2017-01-20T06:38:36.878Z,969.55
2017-01-20T06:39:36.853Z,969.59
2017-01-20T06:40:36.831Z,969.58
2017-01-20T06:41:36.808Z,969.56
2017-01-20T06:42:36.784Z,969.61
2017-01-20T06:43:36.762Z,969.6
2017-01-20T06:44:36.740Z,969.63
2017-01-20T06:45:36.718Z,969.61
2017-01-20T06:46:36.694Z,969.61
2017-01-20T06:47:36.671Z,969.61
2017-01-20T06:48:36.649Z,969.62
2017-01-20T06:49:36.626Z,969.64
2017-01-20T06:50:36.601Z,969.66
2017-01-20T06:51:36.580Z,969.68
2017-01-20T06:52:36.557Z,969.64
2017-01-20T06:53:36.532Z,969.67
2017-01-20T06:54:36.511Z,969.66
2017-01-20T06:55:36.487Z,969.67
2017-01-20T06:56:36.467Z,969.66
2017-01-20T06:57:36.443Z,969.68
2017-01-20T06:58:36.420Z,969.63
2017-01-20T06:59:36.428Z,969.68
2017-01-20T07:00:36.376Z,969.64
2017-01-20T07:01:36.352Z,969.69
2017-01-20T07:02:36.329Z,969.67
2017-01-20T07:03:36.307Z,969.62
2017-01-20T07:04:36.283Z,969.64
2017-01-20T07:05:36.261Z,969.7
2017-01-20T07:06:36.237Z,969.67
2017-01-20T07:07:36.215Z,969.7
2017-01-20T07:08:36.191Z,969.65
2017-01-20T07:09:36.168Z,969.64
2017-01-20T07:10:36.146Z,969.66
2017-01-20T07:11:36.123Z,969.66
2017-01-20T07:12:36.100Z,969.68
2017-01-20T07:13:36.078Z,969.67
2017-01-20T07:14:36.056Z,969.66
2017-01-20T07:15:36.032Z,969.66
2017-01-20T07:16:36.009Z,969.66
2017-01-20T07:17:35.987Z,969.67
2017-01-20T07:18:35.963Z,969.69
2017-01-20T07:19:35.940Z,969.67
2017-01-20T07:20:35.917Z,969.69
2017-01-20T07:21:35.898Z,969.7
2017-01-20T07:22:35.873Z,969.7
2017-01-20T07:23:35.849Z,969.73
2017-01-20T07:24:35.826Z,969.75
2017-01-20T07:25:35.806Z,969.72
2017-01-20T07:26:35.780Z,969.75
2017-01-20T07:27:35.760Z,969.74
2017-01-20T07:28:35.737Z,969.69
2017-01-20T07:29:35.714Z,969.79
2017-01-20T07:30:35.690Z,969.78
2017-01-20T07:31:35.670Z,969.75
2017-01-20T07:32:35.646Z,969.75
2017-01-20T07:33:35.624Z,969.76
2017-01-20T07:34:35.600Z,969.78
2017-01-20T07:35:35.579Z,969.79
2017-01-20T07:36:35.557Z,969.79
2017-01-20T07:37:35.532Z,969.76
2017-01-20T07:38:35.511Z,969.78
2017-01-20T07:39:35.488Z,969.72
2017-01-20T07:40:35.466Z,969.79
2017-01-20T07:41:35.444Z,969.72
2017-01-20T07:42:35.420Z,969.74
2017-01-20T07:43:35.398Z,969.76
2017-01-20T07:44:35.377Z,969.78
2017-01-20T07:45:35.352Z,969.73
2017-01-20T07:46:35.330Z,969.75
2017-01-20T07:47:35.309Z,969.69
2017-01-20T07:48:35.285Z,969.73
2017-01-20T07:49:35.263Z,969.74
2017-01-20T07:50:35.240Z,969.77
2017-01-20T07:51:35.219Z,969.73
2017-01-20T07:52:35.196Z,969.75
2017-01-20T07:53:35.173Z,969.77
2017-01-20T07:54:35.151Z,969.76
2017-01-20T07:55:35.130Z,969.77
2017-01-20T07:56:35.107Z,969.76
2017-01-20T07:57:35.085Z,969.75
2017-01-20T07:58:35.062Z,969.72
2017-01-20T07:59:35.039Z,969.76
2017-01-20T08:00:35.018Z,969.8
2017-01-20T08:01:34.995Z,969.75
2017-01-20T08:02:34.972Z,969.78
2017-01-20T08:03:34.949Z,969.77
2017-01-20T08:04:34.927Z,969.74
2017-01-20T08:05:34.906Z,969.67
2017-01-20T08:06:34.884Z,969.68
2017-01-20T08:07:34.864Z,969.67
2017-01-20T08:08:34.839Z,969.72
2017-01-20T08:09:34.818Z,969.74
2017-01-20T08:10:34.795Z,969.72
2017-01-20T08:11:34.773Z,969.68
2017-01-20T08:12:34.751Z,969.69
2017-01-20T08:13:34.730Z,969.67
2017-01-20T08:14:34.706Z,969.68
2017-01-20T08:15:34.683Z,969.66
2017-01-20T08:16:34.662Z,969.62
2017-01-20T08:17:34.638Z,969.67
2017-01-20T08:18:34.618Z,969.66
2017-01-20T08:19:34.595Z,969.63
2017-01-20T08:20:34.575Z,969.65
2017-01-20T08:21:34.552Z,969.66
2017-01-20T08:22:34.532Z,969.63
2017-01-20T08:23:34.509Z,969.69
2017-01-20T08:24:34.489Z,969.67
2017-01-20T08:25:34.466Z,969.63
2017-01-20T08:26:34.445Z,969.66
2017-01-20T08:27:34.424Z,969.61
2017-01-20T08:28:34.401Z,969.6
2017-01-20T08:29:34.380Z,969.59
2017-01-20T08:30:34.360Z,969.59
2017-01-20T08:31:34.337Z,969.6
2017-01-20T08:32:34.403Z,969.58
2017-01-20T08:33:34.295Z,969.63
2017-01-20T08:34:34.273Z,969.57
2017-01-20T08:35:34.253Z,969.65
2017-01-20T08:36:34.231Z,969.63
2017-01-20T08:37:34.211Z,969.62
2017-01-20T08:38:34.189Z,969.6
2017-01-20T08:39:34.168Z,969.6
2017-01-20T08:40:34.147Z,969.62
2017-01-20T08:41:34.126Z,969.62
2017-01-20T08:42:34.107Z,969.61
2017-01-20T08:43:34.083Z,969.65
2017-01-20T08:44:34.064Z,969.64
2017-01-20T08:45:34.042Z,969.67
2017-01-20T08:46:34.022Z,969.66
2017-01-20T08:47:34.002Z,969.71
2017-01-20T08:48:33.981Z,969.74
2017-01-20T08:49:33.960Z,969.75
2017-01-20T08:50:33.939Z,969.8
2017-01-20T08:51:33.919Z,969.79
2017-01-20T08:52:33.898Z,969.81
2017-01-20T08:53:33.880Z,969.78
2017-01-20T08:54:33.858Z,969.83
2017-01-20T08:55:33.837Z,969.81
2017-01-20T08:56:33.820Z,969.79
2017-01-20T08:57:33.799Z,969.83
2017-01-20T08:58:33.777Z,969.85
2017-01-20T08:59:33.758Z,969.81
2017-01-20T09:00:33.737Z,969.79
2017-01-20T09:01:33.718Z,969.79
2017-01-20T09:02:33.699Z,969.77
2017-01-20T09:03:33.678Z,969.83
2017-01-20T09:04:33.659Z,969.82
2017-01-20T09:05:33.637Z,969.83
2017-01-20T09:06:33.619Z,969.8
2017-01-20T09:07:33.600Z,969.84
2017-01-20T09:08:33.581Z,969.8
2017-01-20T09:09:33.561Z,969.82
2017-01-20T09:10:33.541Z,969.83
2017-01-20T09:11:33.523Z,969.87
2017-01-20T09:12:33.502Z,969.87
2017-01-20T09:13:33.482Z,969.85
2017-01-20T09:14:33.464Z,969.88
2017-01-20T09:15:33.446Z,969.87
2017-01-20T09:16:33.426Z,969.86
2017-01-20T09:17:33.407Z,969.87
2017-01-20T09:18:33.389Z,969.96
2017-01-20T09:19:33.370Z,969.98
2017-01-20T09:20:33.351Z,969.92
2017-01-20T09:21:33.331Z,969.88
2017-01-20T09:22:33.311Z,969.92
2017-01-20T09:23:33.294Z,969.93
2017-01-20T09:24:33.275Z,969.94
2017-01-20T09:25:33.257Z,969.96
2017-01-20T09:26:33.239Z,969.94
2017-01-20T09:27:33.220Z,969.95
2017-01-20T09:28:33.202Z,969.94
2017-01-20T09:29:33.184Z,969.93
2017-01-20T09:30:33.165Z,970
2017-01-20T09:31:33.145Z,970.03
2017-01-20T09:32:33.128Z,970.01
2017-01-20T09:33:33.109Z,969.98
2017-01-20T09:34:33.090Z,970.02
2017-01-20T09:35:33.073Z,970
2017-01-20T09:36:33.055Z,970.01
2017-01-20T09:37:33.037Z,969.97
2017-01-20T09:38:33.018Z,970.04
2017-01-20T09:39:33.001Z,970.06
2017-01-20T09:40:32.983Z,970.03
2017-01-20T09:41:32.965Z,969.97
2017-01-20T09:42:32.948Z,969.99
2017-01-20T09:43:32.932Z,969.98
2017-01-20T09:44:32.912Z,970
2017-01-20T09:45:32.895Z,970
2017-01-20T09:46:32.876Z,969.99
2017-01-20T09:47:32.860Z,969.96
2017-01-20T09:48:32.842Z,970
2017-01-20T09:49:32.823Z,970.02
2017-01-20T09:50:32.807Z,970
2017-01-20T09:51:32.791Z,969.98
2017-01-20T09:52:32.772Z,969.98
2017-01-20T09:53:32.755Z,969.95
2017-01-20T09:54:32.737Z,969.96
2017-01-20T09:55:32.723Z,969.98
2017-01-20T09:56:32.703Z,970
2017-01-20T09:57:32.686Z,970
2017-01-20T09:58:32.671Z,970.02
2017-01-20T09:59:32.654Z,970.04
2017-01-20T10:00:32.635Z,970.01
2017-01-20T10:01:32.620Z,970.03
2017-01-20T10:02:32.602Z,969.95
2017-01-20T10:03:32.620Z,970.01
2017-01-20T10:04:32.567Z,969.95
2017-01-20T10:05:32.551Z,969.96
2017-01-20T10:06:32.534Z,969.97
2017-01-20T10:07:32.517Z,969.95
2017-01-20T10:08:32.500Z,969.92
2017-01-20T10:09:32.485Z,969.91
2017-01-20T10:10:32.469Z,969.91
2017-01-20T10:11:32.451Z,969.9
2017-01-20T10:12:32.434Z,969.92
2017-01-20T10:13:32.419Z,969.91
2017-01-20T10:14:32.401Z,969.9
2017-01-20T10:15:32.384Z,969.93
2017-01-20T10:16:32.367Z,969.95
2017-01-20T10:17:32.356Z,969.97
2017-01-20T10:18:32.333Z,969.98
2017-01-20T10:19:32.317Z,969.95
2017-01-20T10:20:32.300Z,969.9
2017-01-20T10:21:32.284Z,969.9
2017-01-20T10:22:32.267Z,969.89
2017-01-20T10:23:32.250Z,969.89
2017-01-20T10:24:32.232Z,969.88
2017-01-20T10:25:32.215Z,969.83
2017-01-20T10:26:32.199Z,969.84
2017-01-20T10:27:32.181Z,969.82
2017-01-20T10:28:32.166Z,969.82
2017-01-20T10:29:32.148Z,969.79
2017-01-20T10:30:32.131Z,969.79
2017-01-20T10:31:32.114Z,969.8
2017-01-20T10:32:32.099Z,969.79
2017-01-20T10:33:32.080Z,969.83
2017-01-20T10:34:32.065Z,969.79
2017-01-20T10:35:32.047Z,969.78
2017-01-20T10:36:32.029Z,969.76
2017-01-20T10:37:32.014Z,969.75
2017-01-20T10:38:31.997Z,969.73
2017-01-20T10:39:31.981Z,969.77
2017-01-20T10:40:31.963Z,969.74
2017-01-20T10:41:31.946Z,969.79
2017-01-20T10:42:31.930Z,969.82
2017-01-20T10:43:31.913Z,969.81
2017-01-20T10:44:31.897Z,969.77
2017-01-20T10:45:31.880Z,969.76
2017-01-20T10:46:31.862Z,969.77
2017-01-20T10:47:31.845Z,969.76
2017-01-20T10:48:31.828Z,969.74
2017-01-20T10:49:31.812Z,969.75
2017-01-20T10:50:31.795Z,969.72
2017-01-20T10:51:31.778Z,969.73
2017-01-20T10:52:31.762Z,969.72
2017-01-20T10:53:31.746Z,969.72
2017-01-20T10:54:31.729Z,969.76
2017-01-20T10:55:31.712Z,969.75
2017-01-20T10:56:31.694Z,969.76
2017-01-20T10:57:31.680Z,969.73
2017-01-20T10:58:31.662Z,969.69
2017-01-20T10:59:31.646Z,969.62
2017-01-20T11:00:31.629Z,969.61
2017-01-20T11:01:31.613Z,969.66
2017-01-20T11:02:31.597Z,969.62
2017-01-20T11:03:31.580Z,969.66
2017-01-20T11:04:31.564Z,969.63
2017-01-20T11:05:31.547Z,969.67
2017-01-20T11:06:31.531Z,969.64
2017-01-20T11:07:31.514Z,969.67
2017-01-20T11:08:31.497Z,969.67
2017-01-20T11:09:31.481Z,969.62
2017-01-20T11:10:31.464Z,969.63
2017-01-20T11:11:31.449Z,969.62
2017-01-20T11:12:31.432Z,969.6
2017-01-20T11:13:31.415Z,969.6
2017-01-20T11:14:31.398Z,969.6
2017-01-20T11:15:31.383Z,969.6
2017-01-20T11:16:31.367Z,969.57
2017-01-20T11:17:31.351Z,969.53
2017-01-20T11:18:31.334Z,969.52
2017-01-20T11:19:31.318Z,969.54
2017-01-20T11:20:31.301Z,969.51
2017-01-20T11:21:31.285Z,969.49
2017-01-20T11:22:31.268Z,969.5
2017-01-20T11:23:31.254Z,969.53
2017-01-20T11:24:31.235Z,969.53
2017-01-20T11:25:31.220Z,969.45
2017-01-20T11:26:31.204Z,969.49
2017-01-20T11:27:31.186Z,969.46
2017-01-20T11:28:31.172Z,969.44
2017-01-20T11:29:31.157Z,969.47
2017-01-20T11:30:31.139Z,969.44
2017-01-20T11:31:31.122Z,969.44
2017-01-20T11:32:31.107Z,969.42
2017-01-20T11:33:31.091Z,969.41
2017-01-20T11:34:31.076Z,969.4
2017-01-20T11:35:31.060Z,969.42
2017-01-20T11:36:31.045Z,969.42
2017-01-20T11:37:31.028Z,969.41
2017-01-20T11:38:31.012Z,969.42
2017-01-20T11:39:30.996Z,969.42
2017-01-20T11:40:30.982Z,969.37
2017-01-20T11:41:30.966Z,969.38
2017-01-20T11:42:30.949Z,969.38
2017-01-20T11:43:30.936Z,969.36
2017-01-20T11:44:30.920Z,969.36
2017-01-20T11:45:30.906Z,969.31
2017-01-20T11:46:30.888Z,969.32
2017-01-20T11:47:30.872Z,969.32
2017-01-20T11:48:30.858Z,969.34
2017-01-20T11:49:30.841Z,969.36
2017-01-20T11:50:30.827Z,969.34
2017-01-20T11:51:30.812Z,969.35
2017-01-20T11:52:30.797Z,969.28
2017-01-20T11:53:30.779Z,969.32
2017-01-20T11:54:30.765Z,969.26
2017-01-20T11:55:30.752Z,969.24
2017-01-20T11:56:30.736Z,969.2
2017-01-20T11:57:30.720Z,969.2
2017-01-20T11:58:30.705Z,969.24
2017-01-20T11:59:30.690Z,969.26
2017-01-20T12:00:30.674Z,969.24
2017-01-20T12:01:30.659Z,969.27
2017-01-20T12:02:30.643Z,969.26
2017-01-20T12:03:30.628Z,969.22
2017-01-20T12:04:30.613Z,969.23
2017-01-20T12:05:30.598Z,969.2
2017-01-20T12:06:30.584Z,969.2
2017-01-20T12:07:30.567Z,969.2
2017-01-20T12:08:30.550Z,969.17
2017-01-20T12:09:30.536Z,969.15
2017-01-20T12:10:30.521Z,969.13
2017-01-20T12:11:30.505Z,969.14
2017-01-20T12:12:30.488Z,969.19
2017-01-20T12:13:30.474Z,969.2
2017-01-20T12:14:30.458Z,969.16
2017-01-20T12:15:30.443Z,969.14
2017-01-20T12:16:30.427Z,969.21
2017-01-20T12:17:30.412Z,969.17
2017-01-20T12:18:30.396Z,969.18
2017-01-20T12:19:30.383Z,969.19
2017-01-20T12:20:30.364Z,969.18
2017-01-20T12:21:30.350Z,969.15
2017-01-20T12:22:30.332Z,969.16
2017-01-20T12:23:30.317Z,969.17
2017-01-20T12:24:30.302Z,969.15
2017-01-20T12:25:30.286Z,969.09
2017-01-20T12:26:30.271Z,969.09
2017-01-20T12:27:30.256Z,969.11
2017-01-20T12:28:30.239Z,969.06
2017-01-20T12:29:30.225Z,969.06
2017-01-20T12:30:30.208Z,969.02
2017-01-20T12:31:30.194Z,968.98
2017-01-20T12:32:30.178Z,968.93